createdAt,value
2017-09-08T00:01:38.026Z,11.00
2017-09-08T00:04:04.466Z,10.90
2017-09-08T00:06:30.835Z,10.90
2017-09-08T00:08:57.281Z,10.90
2017-09-08T00:11:23.649Z,10.90
2017-09-08T00:13:50.052Z,10.90
2017-09-08T00:16:17.165Z,10.90
2017-09-08T00:18:44.748Z,10.90
2017-09-08T00:21:11.842Z,10.90
2017-09-08T00:23:38.148Z,10.90
2017-09-08T00:26:04.558Z,10.90
2017-09-08T00:28:30.935Z,10.80
2017-09-08T00:30:57.339Z,10.80
2017-09-08T00:33:23.737Z,10.80
2017-09-08T00:35:50.143Z,10.80
2017-09-08T00:38:16.548Z,10.80
2017-09-08T00:40:42.966Z,10.80
2017-09-08T00:43:09.338Z,10.80
2017-09-08T00:45:35.995Z,10.80
2017-09-08T00:48:03.206Z,10.70
2017-09-08T00:50:29.680Z,10.70
2017-09-08T00:52:56.842Z,10.60
2017-09-08T00:55:23.966Z,10.60
2017-09-08T00:57:50.350Z,10.60
2017-09-08T01:00:16.752Z,10.60
2017-09-08T01:02:43.189Z,10.50
2017-09-08T01:05:09.573Z,10.50
2017-09-08T01:07:35.995Z,10.50
2017-09-08T01:10:02.423Z,10.50
2017-09-08T01:12:28.821Z,10.50
2017-09-08T01:14:55.188Z,10.50
2017-09-08T01:17:21.589Z,10.50
2017-09-08T01:19:48.011Z,10.50
2017-09-08T01:22:14.393Z,10.40
2017-09-08T01:24:40.762Z,10.40
2017-09-08T01:27:07.110Z,10.40
2017-09-08T01:29:33.476Z,10.40
2017-09-08T01:31:59.841Z,10.30
2017-09-08T01:34:27.244Z,10.30
2017-09-08T01:36:53.602Z,10.30
2017-09-08T01:39:20.031Z,10.30
2017-09-08T01:41:46.406Z,10.30
2017-09-08T01:44:12.772Z,10.20
2017-09-08T01:46:39.158Z,10.30
2017-09-08T01:49:05.579Z,10.30
2017-09-08T01:51:32.695Z,10.30
2017-09-08T01:53:59.046Z,10.20
2017-09-08T01:56:25.460Z,10.20
2017-09-08T01:58:51.849Z,10.20
2017-09-08T02:01:18.205Z,10.20
2017-09-08T02:03:44.610Z,10.20
2017-09-08T02:06:10.979Z,10.10
2017-09-08T02:08:37.379Z,10.10
2017-09-08T02:11:03.788Z,10.10
2017-09-08T02:13:30.117Z,10.00
2017-09-08T02:15:56.466Z,10.00
2017-09-08T02:18:23.153Z,10.00
2017-09-08T02:20:50.285Z,10.00
2017-09-08T02:23:17.109Z,9.90
2017-09-08T02:25:43.508Z,9.90
2017-09-08T02:28:09.864Z,9.90
2017-09-08T02:30:36.284Z,9.90
2017-09-08T02:33:02.623Z,9.80
2017-09-08T02:35:29.005Z,9.80
2017-09-08T02:37:55.368Z,9.80
2017-09-08T02:40:21.724Z,9.80
2017-09-08T02:42:48.088Z,9.80
2017-09-08T02:45:15.185Z,9.80
2017-09-08T02:47:41.594Z,9.80
2017-09-08T02:50:07.976Z,9.80
2017-09-08T02:52:34.345Z,9.70
2017-09-08T02:55:00.730Z,9.70
2017-09-08T02:57:27.110Z,9.60
2017-09-08T02:59:53.489Z,9.60
2017-09-08T03:02:19.864Z,9.60
2017-09-08T03:04:46.288Z,9.60
2017-09-08T03:07:12.652Z,9.60
2017-09-08T03:09:39.035Z,9.60
2017-09-08T03:12:06.485Z,9.50
2017-09-08T03:14:33.558Z,9.40
2017-09-08T03:16:59.951Z,9.40
2017-09-08T03:19:26.294Z,9.40
2017-09-08T03:21:52.673Z,9.40
2017-09-08T03:24:19.026Z,9.40
2017-09-08T03:26:45.440Z,9.40
2017-09-08T03:29:11.821Z,9.30
2017-09-08T03:31:38.168Z,9.30
2017-09-08T03:34:04.869Z,9.30
2017-09-08T03:36:31.239Z,9.20
2017-09-08T03:38:57.652Z,9.20
2017-09-08T03:41:24.801Z,9.10
2017-09-08T03:43:51.954Z,9.10
2017-09-08T03:46:18.311Z,9.10
2017-09-08T03:48:44.861Z,9.10
2017-09-08T03:51:11.220Z,9.10
2017-09-08T03:53:37.646Z,9.00
2017-09-08T03:56:04.012Z,9.00
2017-09-08T03:58:30.374Z,9.00
2017-09-08T04:00:57.144Z,9.30
2017-09-08T04:03:23.506Z,9.60
2017-09-08T04:05:49.862Z,9.80
2017-09-08T04:08:16.285Z,10.00
2017-09-08T04:10:42.663Z,10.20
2017-09-08T04:13:09.118Z,10.20
2017-09-08T04:15:36.241Z,10.40
2017-09-08T04:18:02.615Z,10.40
2017-09-08T04:20:28.975Z,10.50
2017-09-08T04:22:55.672Z,10.60
2017-09-08T04:25:22.100Z,10.60
2017-09-08T04:27:48.531Z,10.60
2017-09-08T04:30:14.924Z,10.60
2017-09-08T04:32:41.302Z,10.70
2017-09-08T04:35:07.660Z,10.80
2017-09-08T04:37:34.018Z,11.20
2017-09-08T04:40:01.202Z,11.80
2017-09-08T04:42:27.617Z,11.70
2017-09-08T04:44:54.734Z,12.00
2017-09-08T04:47:21.262Z,12.00
2017-09-08T04:49:47.967Z,11.90
2017-09-08T04:52:14.323Z,11.70
2017-09-08T04:54:40.725Z,11.50
2017-09-08T04:57:07.081Z,11.30
2017-09-08T04:59:33.478Z,11.20
2017-09-08T05:01:59.856Z,11.10
2017-09-08T05:04:26.211Z,11.10
2017-09-08T05:06:53.320Z,10.80
2017-09-08T05:09:20.027Z,10.80
2017-09-08T05:11:46.372Z,10.90
2017-09-08T05:14:12.816Z,11.10
2017-09-08T05:16:39.197Z,11.20
2017-09-08T05:19:06.275Z,11.60
2017-09-08T05:21:33.008Z,11.60
2017-09-08T05:23:59.364Z,11.80
2017-09-08T05:26:25.713Z,12.00
2017-09-08T05:28:52.134Z,12.10
2017-09-08T05:31:18.504Z,12.10
2017-09-08T05:33:44.868Z,12.00
2017-09-08T05:36:11.199Z,11.90
2017-09-08T05:38:37.586Z,11.80
2017-09-08T05:41:03.972Z,11.70
2017-09-08T05:43:30.360Z,11.60
2017-09-08T05:45:56.748Z,11.50
2017-09-08T05:48:23.589Z,11.50
2017-09-08T05:50:50.719Z,11.50
2017-09-08T05:53:17.078Z,11.50
2017-09-08T05:55:43.438Z,11.40
2017-09-08T05:58:09.808Z,11.50
2017-09-08T06:00:36.191Z,11.50
2017-09-08T06:03:03.265Z,11.50
2017-09-08T06:05:29.680Z,11.50
2017-09-08T06:07:56.058Z,11.60
2017-09-08T06:10:23.216Z,11.60
2017-09-08T06:12:49.661Z,11.60
2017-09-08T06:15:17.115Z,11.80
2017-09-08T06:17:44.252Z,11.90
2017-09-08T06:20:10.633Z,11.90
2017-09-08T06:22:37.010Z,12.00
2017-09-08T06:25:03.393Z,12.00
2017-09-08T06:27:29.795Z,12.10
2017-09-08T06:29:56.181Z,12.10
2017-09-08T06:32:22.557Z,12.20
2017-09-08T06:34:49.659Z,12.30
2017-09-08T06:37:16.335Z,12.30
2017-09-08T06:39:43.448Z,12.50
2017-09-08T06:42:09.793Z,12.50
2017-09-08T06:44:36.152Z,12.60
2017-09-08T06:47:02.641Z,12.80
2017-09-08T06:49:31.225Z,13.00
2017-09-08T06:51:57.575Z,13.20
2017-09-08T06:54:24.716Z,13.50
2017-09-08T06:56:51.067Z,13.50
2017-09-08T06:59:18.140Z,13.90
2017-09-08T07:01:44.530Z,13.80
2017-09-08T07:04:11.631Z,14.00
2017-09-08T07:06:37.997Z,14.00
2017-09-08T07:09:05.108Z,14.20
2017-09-08T07:11:31.488Z,14.20
2017-09-08T07:13:58.640Z,14.40
2017-09-08T07:16:24.981Z,14.40
2017-09-08T07:18:51.425Z,14.50
2017-09-08T07:21:18.142Z,14.70
2017-09-08T07:23:44.547Z,14.80
2017-09-08T07:26:10.926Z,14.90
2017-09-08T07:28:37.305Z,15.00
2017-09-08T07:31:03.666Z,15.00
2017-09-08T07:33:30.836Z,15.20
2017-09-08T07:35:57.229Z,15.10
2017-09-08T07:38:24.347Z,15.30
2017-09-08T07:40:50.725Z,15.30
2017-09-08T07:43:17.417Z,15.30
2017-09-08T07:45:43.795Z,15.40
2017-09-08T07:48:10.209Z,15.40
2017-09-08T07:50:36.556Z,15.40
2017-09-08T07:53:03.642Z,15.30
2017-09-08T07:55:30.041Z,15.40
2017-09-08T07:57:56.401Z,15.40
2017-09-08T08:00:23.064Z,15.40
2017-09-08T08:02:49.424Z,15.30
2017-09-08T08:05:15.788Z,15.30
2017-09-08T08:07:42.201Z,15.30
2017-09-08T08:10:08.547Z,15.30
2017-09-08T08:12:34.937Z,15.30
2017-09-08T08:15:01.312Z,15.30
2017-09-08T08:17:27.684Z,15.40
2017-09-08T08:19:54.119Z,15.40
2017-09-08T08:22:20.516Z,15.40
2017-09-08T08:24:46.850Z,15.50
2017-09-08T08:27:13.207Z,15.60
2017-09-08T08:29:39.609Z,15.60
2017-09-08T08:32:05.985Z,15.80
2017-09-08T08:34:32.360Z,15.80
2017-09-08T08:36:58.713Z,15.90
2017-09-08T08:39:25.073Z,16.00
2017-09-08T08:41:51.474Z,16.10
2017-09-08T08:44:17.847Z,16.10
2017-09-08T08:46:44.174Z,16.20
2017-09-08T08:49:10.710Z,16.30
2017-09-08T08:51:37.102Z,16.40
2017-09-08T08:54:04.190Z,16.50
2017-09-08T08:56:30.558Z,16.50
2017-09-08T08:58:56.924Z,16.50
2017-09-08T09:01:23.286Z,16.60
2017-09-08T09:03:49.663Z,16.70
2017-09-08T09:06:16.403Z,16.80
2017-09-08T09:08:42.778Z,16.90
2017-09-08T09:11:09.154Z,17.10
2017-09-08T09:13:35.520Z,17.20
2017-09-08T09:16:01.877Z,17.40
2017-09-08T09:18:28.262Z,17.40
2017-09-08T09:20:55.373Z,17.50
2017-09-08T09:23:22.137Z,17.50
2017-09-08T09:25:48.514Z,17.60
2017-09-08T09:28:14.897Z,17.60
2017-09-08T09:30:41.299Z,17.60
2017-09-08T09:33:07.653Z,17.60
2017-09-08T09:35:34.042Z,17.50
2017-09-08T09:38:00.436Z,17.40
2017-09-08T09:40:27.083Z,17.30
2017-09-08T09:42:53.483Z,17.30
2017-09-08T09:45:19.837Z,17.30
2017-09-08T09:47:46.308Z,17.50
2017-09-08T09:50:12.638Z,17.70
2017-09-08T09:52:39.055Z,18.10
2017-09-08T09:55:05.426Z,18.50
2017-09-08T09:57:32.067Z,18.80
2017-09-08T09:59:58.456Z,18.90
2017-09-08T10:02:24.842Z,18.80
2017-09-08T10:04:51.227Z,18.70
2017-09-08T10:07:17.625Z,18.60
2017-09-08T10:09:43.970Z,18.60
2017-09-08T10:12:10.339Z,18.70
2017-09-08T10:14:37.089Z,19.00
2017-09-08T10:17:03.454Z,19.20
2017-09-08T10:19:29.851Z,19.50
2017-09-08T10:21:56.998Z,20.00
2017-09-08T10:24:23.359Z,20.00
2017-09-08T10:26:49.735Z,20.40
2017-09-08T10:29:16.100Z,20.60
2017-09-08T10:31:42.817Z,20.80
2017-09-08T10:34:09.966Z,21.50
2017-09-08T10:36:36.350Z,21.40
2017-09-08T10:39:02.980Z,21.60
2017-09-08T10:41:29.412Z,21.70
2017-09-08T10:43:56.133Z,22.00
2017-09-08T10:46:22.551Z,22.40
2017-09-08T10:48:49.753Z,22.90
2017-09-08T10:51:16.117Z,22.80
2017-09-08T10:53:43.211Z,22.80
2017-09-08T10:56:09.615Z,22.80
2017-09-08T10:58:35.978Z,22.90
2017-09-08T11:01:02.762Z,22.90
2017-09-08T11:03:29.189Z,23.00
2017-09-08T11:05:55.558Z,23.20
2017-09-08T11:08:21.974Z,23.40
2017-09-08T11:10:48.404Z,23.40
2017-09-08T11:13:15.506Z,23.70
2017-09-08T11:15:41.883Z,23.60
2017-09-08T11:18:08.435Z,23.70
2017-09-08T11:20:34.783Z,23.60
2017-09-08T11:23:01.148Z,23.50
2017-09-08T11:25:27.531Z,23.20
2017-09-08T11:27:53.946Z,22.80
2017-09-08T11:30:20.457Z,22.70
2017-09-08T11:32:53.596Z,22.90
2017-09-08T11:35:26.163Z,22.90
2017-09-08T11:37:52.573Z,23.20
2017-09-08T11:40:19.056Z,23.70
2017-09-08T11:42:45.413Z,24.20
2017-09-08T11:45:12.529Z,24.90
2017-09-08T11:47:38.961Z,24.90
2017-09-08T11:50:12.315Z,25.30
2017-09-08T11:52:38.697Z,25.70
2017-09-08T11:55:05.052Z,26.00
2017-09-08T11:57:31.417Z,26.40
2017-09-08T11:59:57.821Z,26.70
2017-09-08T12:02:24.546Z,27.10
2017-09-08T12:04:51.662Z,27.10
2017-09-08T12:07:18.059Z,27.10
2017-09-08T12:09:44.412Z,27.10
2017-09-08T12:12:10.783Z,27.00
2017-09-08T12:14:37.937Z,26.80
2017-09-08T12:17:04.280Z,26.70
2017-09-08T12:19:30.958Z,26.70
2017-09-08T12:21:57.330Z,26.70
2017-09-08T12:24:23.787Z,26.70
2017-09-08T12:26:50.920Z,27.10
2017-09-08T12:29:17.289Z,27.00
2017-09-08T12:31:43.662Z,27.20
2017-09-08T12:34:10.803Z,27.50
2017-09-08T12:36:38.199Z,27.60
2017-09-08T12:39:04.602Z,27.50
2017-09-08T12:41:31.712Z,27.80
2017-09-08T12:43:58.071Z,27.80
2017-09-08T12:46:25.182Z,28.10
2017-09-08T12:48:52.063Z,28.10
2017-09-08T12:51:19.174Z,28.20
2017-09-08T12:53:45.520Z,28.20
2017-09-08T12:56:11.956Z,28.30
2017-09-08T12:58:38.304Z,28.40
2017-09-08T13:01:05.414Z,28.60
2017-09-08T13:03:31.763Z,28.60
2017-09-08T13:05:58.126Z,28.60
2017-09-08T13:08:24.449Z,28.50
2017-09-08T13:10:50.819Z,28.40
2017-09-08T13:13:17.177Z,28.50
2017-09-08T13:15:43.543Z,28.40
2017-09-08T13:18:10.200Z,28.30
2017-09-08T13:20:36.578Z,28.20
2017-09-08T13:23:03.673Z,28.30
2017-09-08T13:25:30.026Z,28.20
2017-09-08T13:27:56.395Z,28.20
2017-09-08T13:30:23.126Z,28.10
2017-09-08T13:32:49.502Z,28.00
2017-09-08T13:35:15.896Z,27.80
2017-09-08T13:37:42.302Z,27.60
2017-09-08T13:40:08.652Z,27.50
2017-09-08T13:42:35.764Z,27.90
2017-09-08T13:45:02.102Z,27.90
2017-09-08T13:47:28.556Z,27.90
2017-09-08T13:49:54.932Z,28.00
2017-09-08T13:52:21.631Z,28.00
2017-09-08T13:54:48.731Z,28.00
2017-09-08T13:57:15.107Z,27.90
2017-09-08T13:59:41.497Z,28.10
2017-09-08T14:02:07.838Z,28.30
2017-09-08T14:04:34.233Z,28.40
2017-09-08T14:07:00.587Z,28.40
2017-09-08T14:09:27.226Z,28.40
2017-09-08T14:11:53.570Z,28.40
2017-09-08T14:14:19.887Z,28.30
2017-09-08T14:16:46.282Z,28.00
2017-09-08T14:19:12.654Z,27.90
2017-09-08T14:21:39.035Z,27.80
2017-09-08T14:24:05.422Z,27.70
2017-09-08T14:26:32.163Z,27.70
2017-09-08T14:28:58.531Z,27.70
2017-09-08T14:31:24.930Z,27.60
2017-09-08T14:33:51.305Z,27.40
2017-09-08T14:36:17.638Z,27.40
2017-09-08T14:38:44.010Z,27.50
2017-09-08T14:41:11.117Z,27.40
2017-09-08T14:43:37.782Z,27.40
2017-09-08T14:46:04.132Z,27.30
2017-09-08T14:48:31.288Z,27.20
2017-09-08T14:50:58.426Z,27.40
2017-09-08T14:53:25.526Z,27.60
2017-09-08T14:55:51.908Z,27.60
2017-09-08T14:58:18.997Z,27.40
2017-09-08T15:00:45.402Z,27.30
2017-09-08T15:03:11.813Z,27.00
2017-09-08T15:05:38.475Z,26.90
2017-09-08T15:08:04.835Z,27.00
2017-09-08T15:10:31.215Z,27.20
2017-09-08T15:12:58.316Z,27.60
2017-09-08T15:15:24.707Z,27.50
2017-09-08T15:17:51.110Z,27.70
2017-09-08T15:20:17.472Z,27.70
2017-09-08T15:22:43.924Z,27.70
2017-09-08T15:25:10.291Z,27.70
2017-09-08T15:27:37.768Z,27.60
2017-09-08T15:30:04.136Z,27.60
2017-09-08T15:32:30.541Z,27.60
2017-09-08T15:34:56.945Z,27.60
2017-09-08T15:37:24.068Z,27.50
2017-09-08T15:39:50.470Z,27.50
2017-09-08T15:42:16.817Z,27.40
2017-09-08T15:44:43.204Z,27.30
2017-09-08T15:47:09.524Z,27.20
2017-09-08T15:49:36.945Z,27.10
2017-09-08T15:52:03.323Z,27.00
2017-09-08T15:54:29.684Z,26.80
2017-09-08T15:56:56.060Z,26.70
2017-09-08T15:59:22.412Z,26.50
2017-09-08T16:01:48.750Z,26.50
2017-09-08T16:04:15.095Z,26.40
2017-09-08T16:06:41.756Z,26.30
2017-09-08T16:09:08.131Z,26.30
2017-09-08T16:11:34.527Z,26.20
2017-09-08T16:14:00.889Z,26.00
2017-09-08T16:16:27.287Z,25.70
2017-09-08T16:18:53.670Z,25.40
2017-09-08T16:21:20.047Z,25.20
2017-09-08T16:23:46.409Z,25.00
2017-09-08T16:26:13.507Z,24.70
2017-09-08T16:28:39.949Z,24.70
2017-09-08T16:31:06.318Z,24.50
2017-09-08T16:33:33.438Z,24.10
2017-09-08T16:35:59.888Z,24.00
2017-09-08T16:38:26.261Z,23.80
2017-09-08T16:40:52.619Z,23.50
2017-09-08T16:43:18.991Z,23.20
2017-09-08T16:45:45.359Z,22.80
2017-09-08T16:48:11.851Z,22.60
2017-09-08T16:50:38.222Z,22.40
2017-09-08T16:53:04.574Z,22.10
2017-09-08T16:55:31.051Z,21.90
2017-09-08T16:57:57.410Z,21.60
2017-09-08T17:00:23.809Z,21.40
2017-09-08T17:02:50.173Z,21.20
2017-09-08T17:05:16.580Z,21.00
2017-09-08T17:07:42.965Z,20.80
2017-09-08T17:10:09.329Z,20.70
2017-09-08T17:12:35.676Z,20.50
2017-09-08T17:15:02.048Z,20.40
2017-09-08T17:17:28.420Z,20.20
2017-09-08T17:19:54.767Z,20.00
2017-09-08T17:22:21.154Z,19.80
2017-09-08T17:24:48.324Z,19.50
2017-09-08T17:27:14.745Z,19.50
2017-09-08T17:29:41.131Z,19.40
2017-09-08T17:32:07.478Z,19.20
2017-09-08T17:34:34.606Z,18.90
2017-09-08T17:37:00.961Z,18.90
2017-09-08T17:39:28.070Z,18.60
2017-09-08T17:41:54.401Z,18.50
2017-09-08T17:44:20.816Z,18.50
2017-09-08T17:46:47.169Z,18.30
2017-09-08T17:49:13.655Z,18.10
2017-09-08T17:51:40.044Z,18.00
2017-09-08T17:54:06.699Z,17.90
2017-09-08T17:56:33.798Z,17.60
2017-09-08T17:59:00.162Z,17.60
2017-09-08T18:01:26.533Z,17.50
2017-09-08T18:03:52.917Z,17.40
2017-09-08T18:06:19.302Z,17.30
2017-09-08T18:08:45.678Z,17.10
2017-09-08T18:11:12.069Z,17.00
2017-09-08T18:13:38.446Z,16.90
2017-09-08T18:16:05.911Z,16.70
2017-09-08T18:18:33.038Z,16.60
2017-09-08T18:20:59.498Z,16.60
2017-09-08T18:23:26.720Z,16.50
2017-09-08T18:25:53.142Z,16.50
2017-09-08T18:28:19.555Z,16.50
2017-09-08T18:30:45.947Z,16.40
2017-09-08T18:33:12.328Z,16.40
2017-09-08T18:35:38.794Z,16.30
2017-09-08T18:38:05.948Z,16.20
2017-09-08T18:40:33.161Z,16.10
2017-09-08T18:42:59.911Z,16.10
2017-09-08T18:45:26.335Z,16.10
2017-09-08T18:47:52.922Z,16.00
2017-09-08T18:50:19.445Z,16.00
2017-09-08T18:52:45.939Z,15.90
2017-09-08T18:55:12.378Z,15.90
2017-09-08T18:57:38.821Z,15.80
2017-09-08T19:00:05.996Z,15.70
2017-09-08T19:02:32.413Z,15.70
2017-09-08T19:04:58.862Z,15.60
2017-09-08T19:07:25.319Z,15.50
2017-09-08T19:09:52.149Z,15.40
2017-09-08T19:12:18.635Z,15.40
2017-09-08T19:14:45.842Z,15.40
2017-09-08T19:17:12.331Z,15.30
2017-09-08T19:19:38.812Z,15.30
2017-09-08T19:22:05.291Z,15.30
2017-09-08T19:24:31.694Z,15.30
2017-09-08T19:26:58.147Z,15.20
2017-09-08T19:29:24.585Z,15.10
2017-09-08T19:31:51.024Z,15.10
2017-09-08T19:34:17.499Z,15.00
2017-09-08T19:36:44.243Z,15.00
2017-09-08T19:39:10.713Z,15.00
2017-09-08T19:41:37.851Z,14.90
2017-09-08T19:44:04.319Z,14.90
2017-09-08T19:46:30.721Z,14.90
2017-09-08T19:48:57.291Z,14.80
2017-09-08T19:51:23.770Z,14.80
2017-09-08T19:53:50.262Z,14.80
2017-09-08T19:56:16.716Z,14.70
2017-09-08T19:58:43.515Z,14.70
2017-09-08T20:01:09.921Z,14.60
2017-09-08T20:03:36.415Z,14.50
2017-09-08T20:06:02.944Z,14.50
2017-09-08T20:08:29.396Z,14.50
2017-09-08T20:10:55.859Z,14.50
2017-09-08T20:13:22.292Z,14.50
2017-09-08T20:15:49.480Z,14.50
2017-09-08T20:18:15.989Z,14.50
2017-09-08T20:20:42.479Z,14.50
2017-09-08T20:23:08.937Z,14.50
2017-09-08T20:25:35.661Z,14.50
2017-09-08T20:28:02.055Z,14.40
2017-09-08T20:30:28.586Z,14.40
2017-09-08T20:32:55.039Z,14.40
2017-09-08T20:35:21.496Z,14.30
2017-09-08T20:37:48.672Z,14.20
2017-09-08T20:40:15.115Z,14.20
2017-09-08T20:42:41.603Z,14.20
2017-09-08T20:45:08.749Z,14.20
2017-09-08T20:50:36.491Z,14.00
2017-09-08T20:53:03.178Z,14.00
2017-09-08T20:55:30.336Z,14.00
2017-09-08T20:58:11.014Z,14.00
2017-09-08T21:00:37.389Z,13.90
2017-09-08T21:03:03.773Z,13.90
2017-09-08T21:05:30.236Z,13.90
2017-09-08T21:07:56.634Z,13.90
2017-09-08T21:10:23.052Z,13.80
2017-09-08T21:12:49.452Z,13.80
2017-09-08T21:15:15.774Z,13.80
2017-09-08T21:17:42.099Z,13.80
2017-09-08T21:20:08.519Z,13.70
2017-09-08T21:22:34.933Z,13.70
2017-09-08T21:25:01.716Z,13.70
2017-09-08T21:27:28.071Z,13.70
2017-09-08T21:29:54.443Z,13.70
2017-09-08T21:32:20.832Z,13.70
2017-09-08T21:34:47.218Z,13.60
2017-09-08T21:37:13.684Z,13.60
2017-09-08T21:39:40.097Z,13.50
2017-09-08T21:42:07.223Z,13.40
2017-09-08T21:44:33.564Z,13.40
2017-09-08T21:47:00.329Z,13.40
2017-09-08T21:49:27.518Z,13.30
2017-09-08T21:51:53.924Z,13.30
2017-09-08T21:54:20.304Z,13.30
2017-09-08T21:56:46.659Z,13.30
2017-09-08T21:59:13.790Z,13.20
2017-09-08T22:01:40.196Z,13.20
2017-09-08T22:04:06.568Z,13.20
2017-09-08T22:06:32.973Z,13.20
2017-09-08T22:08:59.325Z,13.20
2017-09-08T22:11:25.712Z,13.20
2017-09-08T22:13:52.106Z,13.20
2017-09-08T22:16:25.435Z,13.10
2017-09-08T22:18:52.114Z,13.10
2017-09-08T22:21:19.228Z,13.10
2017-09-08T22:23:45.589Z,13.00
2017-09-08T22:26:11.995Z,13.00
2017-09-08T22:28:38.367Z,13.00
2017-09-08T22:31:04.804Z,13.00
2017-09-08T22:33:31.948Z,12.90
2017-09-08T22:35:59.071Z,12.90
2017-09-08T22:38:26.222Z,12.80
2017-09-08T22:40:53.334Z,12.80
2017-09-08T22:43:19.716Z,12.80
2017-09-08T22:45:46.089Z,12.80
2017-09-08T22:48:12.474Z,12.70
2017-09-08T22:50:39.873Z,12.70
2017-09-08T22:53:06.250Z,12.60
2017-09-08T22:55:33.365Z,12.60
2017-09-08T22:57:59.733Z,12.60
2017-09-08T23:00:26.851Z,12.70
2017-09-08T23:02:53.227Z,12.60
2017-09-08T23:05:19.607Z,12.70
2017-09-08T23:07:46.025Z,12.60
2017-09-08T23:10:12.418Z,12.60
2017-09-08T23:12:38.869Z,12.50
2017-09-08T23:15:05.241Z,12.50
2017-09-08T23:17:31.888Z,12.50
2017-09-08T23:19:58.966Z,12.40
2017-09-08T23:22:25.334Z,12.40
2017-09-08T23:24:51.679Z,12.40
2017-09-08T23:27:18.087Z,12.40
2017-09-08T23:29:44.462Z,12.40
2017-09-08T23:32:10.847Z,12.40
2017-09-08T23:34:37.232Z,12.30
2017-09-08T23:37:04.373Z,12.30
2017-09-08T23:39:30.816Z,12.30
2017-09-08T23:41:57.167Z,12.30
2017-09-08T23:44:23.550Z,12.30
2017-09-08T23:46:50.631Z,12.30
2017-09-08T23:49:17.089Z,12.20
2017-09-08T23:51:43.468Z,12.30
2017-09-08T23:54:10.545Z,12.20
2017-09-08T23:56:36.931Z,12.20
2017-09-08T23:59:03.289Z,12.20
